Time;durP1;ratioP1;P1;durP2;ratioP2;P2;SDS_P1;SDS_P2;PMS_P1;PMS_P2;Temp;Humidity;BMP_temperature;BMP_pressure;BME280_temperature;BME280_humidity;BME280_pressure;Samples;Min_cycle;Max_cycle;Signal;HPM_P1;HPM_P2
2022/05/17 00:00:27;;;;;;;13.45;4.25;;;;;;;;;;5040218;28;20193;-66
2022/05/17 00:02:52;;;;;;;13.57;4.45;;;;;;;;;;5035292;28;20190;-66
2022/05/17 00:05:18;;;;;;;10.05;4.13;;;;;;;;;;5043828;28;20448;-66
2022/05/17 00:07:43;;;;;;;12.55;4.25;;;;;;;;;;5048211;28;20535;-66
2022/05/17 00:10:10;;;;;;;12.38;4.38;;;;;;;;;;5033270;28;20698;-66
2022/05/17 00:12:36;;;;;;;9.63;4.53;;;;;;;;;;5045762;28;20196;-66
2022/05/17 00:15:02;;;;;;;15.35;4.32;;;;;;;;;;5044331;28;20256;-66
2022/05/17 00:17:28;;;;;;;10.75;4.47;;;;;;;;;;5027125;28;20592;-66
2022/05/17 00:19:53;;;;;;;11.48;4.85;;;;;;;;;;5037692;28;20483;-66
2022/05/17 00:22:19;;;;;;;12.15;4.53;;;;;;;;;;5041800;28;20215;-66
2022/05/17 00:24:44;;;;;;;9.68;3.90;;;;;;;;;;5042588;28;20182;-66
2022/05/17 00:27:09;;;;;;;12.68;4.72;;;;;;;;;;5029737;28;20270;-67
2022/05/17 00:29:35;;;;;;;9.98;4.30;;;;;;;;;;5039499;28;20183;-66
2022/05/17 00:32:01;;;;;;;8.60;4.00;;;;;;;;;;5040046;28;20326;-66
2022/05/17 00:34:27;;;;;;;15.23;4.80;;;;;;;;;;5038403;28;20525;-66
2022/05/17 00:36:53;;;;;;;11.95;5.05;;;;;;;;;;5037838;28;20189;-66
2022/05/17 00:39:18;;;;;;;12.82;4.75;;;;;;;;;;5033025;28;20269;-67
2022/05/17 00:41:44;;;;;;;15.68;4.63;;;;;;;;;;5030698;28;20612;-66
2022/05/17 00:46:59;;;;;;;11.13;4.50;;;;;;;;;;5030871;28;20749;-66
2022/05/17 00:49:30;;;;;;;10.18;4.60;;;;;;;;;;5037722;28;20664;-66
2022/05/17 00:52:00;;;;;;;10.18;4.10;;;;;;;;;;5025710;28;20205;-66
2022/05/17 00:54:27;;;;;;;12.52;5.18;;;;;;;;;;5037638;28;20197;-67
2022/05/17 00:57:04;;;;;;;17.27;5.03;;;;;;;;;;5034286;28;20174;-66
2022/05/17 00:59:31;;;;;;;12.45;4.70;;;;;;;;;;5037215;28;20192;-66
2022/05/17 01:01:56;;;;;;;16.92;4.97;;;;;;;;;;5030881;28;20174;-66
2022/05/17 01:04:24;;;;;;;14.88;5.20;;;;;;;;;;5033606;28;20694;-66
2022/05/17 01:07:02;;;;;;;10.60;5.10;;;;;;;;;;5031489;28;20649;-66
2022/05/17 01:09:28;;;;;;;12.20;4.70;;;;;;;;;;5042406;28;20229;-66
2022/05/17 01:11:53;;;;;;;14.18;5.28;;;;;;;;;;5046681;28;20258;-66
2022/05/17 01:17:04;;;;;;;11.43;4.80;;;;;;;;;;5029989;28;20731;-67
2022/05/17 01:19:30;;;;;;;11.90;5.10;;;;;;;;;;5030367;28;20198;-66
2022/05/17 01:21:55;;;;;;;8.35;4.80;;;;;;;;;;5035904;28;20665;-66
2022/05/17 01:24:21;;;;;;;10.85;4.78;;;;;;;;;;5041137;28;20285;-67
2022/05/17 01:26:57;;;;;;;11.05;4.90;;;;;;;;;;5039298;28;20189;-67
2022/05/17 01:29:22;;;;;;;9.45;4.78;;;;;;;;;;5038660;28;20782;-66
2022/05/17 01:31:48;;;;;;;10.50;4.68;;;;;;;;;;5028540;28;20202;-66
2022/05/17 01:34:14;;;;;;;18.27;5.20;;;;;;;;;;5031465;28;20182;-67
2022/05/17 01:36:40;;;;;;;7.25;4.53;;;;;;;;;;5031436;28;20211;-66
2022/05/17 01:39:07;;;;;;;9.95;4.50;;;;;;;;;;5028607;28;20174;-67
2022/05/17 01:41:32;;;;;;;14.70;5.85;;;;;;;;;;5045006;28;20178;-66
2022/05/17 01:43:59;;;;;;;12.63;5.53;;;;;;;;;;5033557;28;20196;-67
2022/05/17 01:46:24;;;;;;;12.25;5.47;;;;;;;;;;5028282;28;20178;-66
2022/05/17 01:48:51;;;;;;;16.05;5.80;;;;;;;;;;5031083;28;20193;-66
2022/05/17 01:51:18;;;;;;;17.65;5.63;;;;;;;;;;5034066;28;20437;-67
2022/05/17 01:53:43;;;;;;;13.75;5.45;;;;;;;;;;5040615;28;20173;-67
2022/05/17 01:56:09;;;;;;;15.27;5.57;;;;;;;;;;5030987;28;20189;-66
2022/05/17 01:58:35;;;;;;;11.93;5.97;;;;;;;;;;5045338;28;20541;-67
2022/05/17 02:01:02;;;;;;;16.20;6.25;;;;;;;;;;5027973;28;20235;-66
2022/05/17 02:03:27;;;;;;;15.75;6.38;;;;;;;;;;5031488;28;20182;-66
2022/05/17 02:05:53;;;;;;;13.70;6.28;;;;;;;;;;5033651;28;20269;-67
2022/05/17 02:08:18;;;;;;;14.70;5.75;;;;;;;;;;5029774;28;20242;-66
2022/05/17 02:10:44;;;;;;;18.75;6.65;;;;;;;;;;5029850;28;20236;-66
2022/05/17 02:13:10;;;;;;;15.32;6.80;;;;;;;;;;5029997;28;20745;-66
2022/05/17 02:15:36;;;;;;;14.55;6.10;;;;;;;;;;5030888;28;20189;-65
2022/05/17 02:18:02;;;;;;;16.10;6.75;;;;;;;;;;5032839;28;20630;-65
2022/05/17 02:20:27;;;;;;;16.80;6.75;;;;;;;;;;5029803;28;20166;-65
2022/05/17 02:22:53;;;;;;;19.08;6.72;;;;;;;;;;5033287;28;20189;-65
2022/05/17 02:25:18;;;;;;;13.40;6.30;;;;;;;;;;5036268;28;20660;-65
2022/05/17 02:27:43;;;;;;;15.52;6.55;;;;;;;;;;5029892;28;20633;-65
2022/05/17 02:30:11;;;;;;;12.73;7.05;;;;;;;;;;5027603;28;20190;-66
2022/05/17 02:32:37;;;;;;;13.30;6.55;;;;;;;;;;5029793;28;20198;-65
2022/05/17 02:35:05;;;;;;;17.38;6.43;;;;;;;;;;5037564;28;20549;-66
2022/05/17 02:37:30;;;;;;;15.48;6.95;;;;;;;;;;5027625;28;20182;-65
2022/05/17 02:39:55;;;;;;;14.15;6.97;;;;;;;;;;5040460;28;20186;-66
2022/05/17 02:42:21;;;;;;;17.20;7.43;;;;;;;;;;5030204;28;20214;-65
2022/05/17 02:44:46;;;;;;;14.00;6.93;;;;;;;;;;5035407;28;20277;-65
2022/05/17 02:47:11;;;;;;;19.42;7.45;;;;;;;;;;5033347;28;20260;-65
2022/05/17 02:49:40;;;;;;;17.83;7.95;;;;;;;;;;5040973;28;20627;-65
2022/05/17 02:52:06;;;;;;;18.35;7.38;;;;;;;;;;5033699;28;20585;-65
2022/05/17 02:54:32;;;;;;;14.43;7.78;;;;;;;;;;5048739;28;20227;-66
2022/05/17 02:56:57;;;;;;;13.18;6.40;;;;;;;;;;5032610;28;20197;-65
2022/05/17 02:59:23;;;;;;;14.20;7.53;;;;;;;;;;5032081;28;20582;-65
2022/05/17 03:01:48;;;;;;;13.75;6.30;;;;;;;;;;5033577;28;20204;-65
2022/05/17 03:04:14;;;;;;;19.58;7.32;;;;;;;;;;5035441;28;20240;-65
2022/05/17 03:06:44;;;;;;;20.92;7.35;;;;;;;;;;5033956;28;20637;-65
2022/05/17 03:09:09;;;;;;;21.98;7.80;;;;;;;;;;5044312;28;20223;-65
2022/05/17 03:11:36;;;;;;;15.43;7.38;;;;;;;;;;5034884;28;20201;-65
2022/05/17 03:14:02;;;;;;;16.83;7.68;;;;;;;;;;5041932;28;20186;-65
2022/05/17 03:16:29;;;;;;;14.80;7.28;;;;;;;;;;5032973;28;20679;-65
2022/05/17 03:18:54;;;;;;;17.88;8.00;;;;;;;;;;5032810;28;20201;-65
2022/05/17 03:21:20;;;;;;;19.25;7.55;;;;;;;;;;5037147;28;20209;-65
2022/05/17 03:23:45;;;;;;;26.77;8.73;;;;;;;;;;5040393;28;20178;-65
2022/05/17 03:26:10;;;;;;;20.40;8.68;;;;;;;;;;5045537;28;20721;-65
2022/05/17 03:28:36;;;;;;;13.50;7.43;;;;;;;;;;5037906;28;20186;-65
2022/05/17 03:31:05;;;;;;;17.90;8.20;;;;;;;;;;5044917;28;20213;-66
2022/05/17 03:33:30;;;;;;;11.77;7.55;;;;;;;;;;5037704;28;20208;-66
2022/05/17 03:35:56;;;;;;;14.35;8.07;;;;;;;;;;5038549;28;20214;-65
2022/05/17 03:38:21;;;;;;;15.80;8.35;;;;;;;;;;5034313;28;20208;-65
2022/05/17 03:40:46;;;;;;;18.20;8.38;;;;;;;;;;5039308;28;20216;-65
2022/05/17 03:43:12;;;;;;;19.40;8.77;;;;;;;;;;5032986;28;20182;-65
2022/05/17 03:45:37;;;;;;;17.55;8.75;;;;;;;;;;5031001;28;20238;-65
2022/05/17 03:48:03;;;;;;;17.75;9.30;;;;;;;;;;5029405;28;20520;-66
2022/05/17 03:50:28;;;;;;;22.60;9.05;;;;;;;;;;5031781;28;20266;-66
2022/05/17 03:52:54;;;;;;;17.50;9.18;;;;;;;;;;5032938;28;20273;-66
2022/05/17 03:55:19;;;;;;;17.52;9.13;;;;;;;;;;5036948;28;20201;-66
2022/05/17 03:57:44;;;;;;;21.00;9.80;;;;;;;;;;5035507;28;20178;-65
2022/05/17 04:00:10;;;;;;;17.48;10.85;;;;;;;;;;5038335;28;20213;-65
2022/05/17 04:02:37;;;;;;;21.85;11.43;;;;;;;;;;5033046;28;20182;-65
2022/05/17 04:05:03;;;;;;;18.65;11.35;;;;;;;;;;5036212;28;20223;-66
2022/05/17 04:07:28;;;;;;;27.77;12.48;;;;;;;;;;5046840;28;20185;-66
2022/05/17 04:09:53;;;;;;;24.20;12.25;;;;;;;;;;5048123;28;20225;-66
2022/05/17 04:12:19;;;;;;;26.52;13.48;;;;;;;;;;5033225;28;20615;-66
2022/05/17 04:14:45;;;;;;;22.17;11.98;;;;;;;;;;5043522;28;20239;-65
2022/05/17 04:17:10;;;;;;;22.70;11.30;;;;;;;;;;5032746;28;20256;-66
2022/05/17 04:19:37;;;;;;;20.02;10.75;;;;;;;;;;5031780;28;20483;-66
2022/05/17 04:22:07;;;;;;;20.75;10.25;;;;;;;;;;5036679;28;20256;-66
2022/05/17 04:24:32;;;;;;;19.73;10.57;;;;;;;;;;5038377;28;20269;-66
2022/05/17 04:26:58;;;;;;;18.30;11.60;;;;;;;;;;5040713;28;20316;-66
2022/05/17 04:29:23;;;;;;;22.55;12.35;;;;;;;;;;5028473;28;20181;-66
2022/05/17 04:31:48;;;;;;;19.60;11.38;;;;;;;;;;5032112;28;20279;-66
2022/05/17 04:34:14;;;;;;;20.42;11.57;;;;;;;;;;5037955;28;20184;-66
2022/05/17 04:36:40;;;;;;;24.25;10.82;;;;;;;;;;5033173;28;20378;-65
2022/05/17 04:39:05;;;;;;;16.60;9.85;;;;;;;;;;5029637;28;20568;-66
2022/05/17 04:41:31;;;;;;;21.73;10.25;;;;;;;;;;5030520;28;20178;-66
2022/05/17 04:43:56;;;;;;;15.02;8.52;;;;;;;;;;5034392;28;20185;-66
2022/05/17 04:46:22;;;;;;;20.10;9.27;;;;;;;;;;5030652;28;20277;-66
2022/05/17 04:48:47;;;;;;;20.42;8.75;;;;;;;;;;5038517;28;20179;-66
2022/05/17 04:51:14;;;;;;;18.10;9.05;;;;;;;;;;5040484;28;20206;-66
2022/05/17 04:53:41;;;;;;;13.35;7.47;;;;;;;;;;5042512;28;20204;-65
2022/05/17 04:56:07;;;;;;;17.75;7.80;;;;;;;;;;5035011;28;20535;-65
2022/05/17 04:58:33;;;;;;;19.55;9.32;;;;;;;;;;5047525;28;20257;-65
2022/05/17 05:01:00;;;;;;;20.10;8.18;;;;;;;;;;5031015;28;20284;-66
2022/05/17 05:03:26;;;;;;;15.93;8.15;;;;;;;;;;5032953;28;20243;-66
2022/05/17 05:05:52;;;;;;;13.55;7.45;;;;;;;;;;5038682;28;20174;-65
2022/05/17 05:08:17;;;;;;;16.92;8.02;;;;;;;;;;5041244;28;20214;-65
2022/05/17 05:10:45;;;;;;;15.38;7.78;;;;;;;;;;5032986;28;20218;-66
2022/05/17 05:13:15;;;;;;;16.98;7.38;;;;;;;;;;5035121;28;20200;-65
2022/05/17 05:15:41;;;;;;;21.60;7.30;;;;;;;;;;5033020;28;20564;-65
2022/05/17 05:18:06;;;;;;;16.13;6.30;;;;;;;;;;5035474;28;20165;-65
2022/05/17 05:20:32;;;;;;;15.52;7.22;;;;;;;;;;5037132;28;20520;-65
2022/05/17 05:22:58;;;;;;;12.88;6.47;;;;;;;;;;5038397;28;20165;-65
2022/05/17 05:25:23;;;;;;;14.00;7.13;;;;;;;;;;5038042;28;20230;-65
2022/05/17 05:27:49;;;;;;;13.32;6.70;;;;;;;;;;5033175;28;20178;-65
2022/05/17 05:30:16;;;;;;;12.00;6.00;;;;;;;;;;5041266;28;20223;-66
2022/05/17 05:32:42;;;;;;;12.55;6.07;;;;;;;;;;5035992;28;20295;-66
2022/05/17 05:35:08;;;;;;;9.38;5.80;;;;;;;;;;5036942;28;20640;-65
2022/05/17 05:37:33;;;;;;;10.80;6.00;;;;;;;;;;5030773;28;20575;-66
2022/05/17 05:39:58;;;;;;;13.23;5.85;;;;;;;;;;5034551;28;20308;-66
2022/05/17 05:42:24;;;;;;;12.02;5.60;;;;;;;;;;5030547;28;20170;-65
2022/05/17 05:44:50;;;;;;;12.77;6.10;;;;;;;;;;5029548;28;20186;-65
2022/05/17 05:47:15;;;;;;;12.15;5.57;;;;;;;;;;5033869;28;20192;-66
2022/05/17 05:49:40;;;;;;;14.70;6.47;;;;;;;;;;5028985;28;20182;-66
2022/05/17 05:52:06;;;;;;;14.45;5.90;;;;;;;;;;5032219;28;20554;-66
2022/05/17 05:54:31;;;;;;;9.88;5.32;;;;;;;;;;5029703;28;20694;-65
2022/05/17 05:57:00;;;;;;;12.95;5.93;;;;;;;;;;5037679;28;20828;-68
2022/05/17 05:59:28;;;;;;;12.50;5.88;;;;;;;;;;5033201;28;20630;-65
2022/05/17 06:01:53;;;;;;;10.57;5.72;;;;;;;;;;5029129;28;20648;-66
2022/05/17 06:04:19;;;;;;;12.35;6.25;;;;;;;;;;5031481;28;20280;-66
2022/05/17 06:06:44;;;;;;;16.73;6.25;;;;;;;;;;5030549;28;20307;-65
2022/05/17 06:09:09;;;;;;;11.77;5.80;;;;;;;;;;5026871;28;20554;-65
2022/05/17 06:11:35;;;;;;;13.15;5.70;;;;;;;;;;5040199;28;20287;-65
2022/05/17 06:14:00;;;;;;;14.93;7.15;;;;;;;;;;5032356;28;20616;-66
2022/05/17 06:16:25;;;;;;;16.10;6.07;;;;;;;;;;5040539;28;20189;-66
2022/05/17 06:18:51;;;;;;;15.20;6.45;;;;;;;;;;5034078;28;20211;-65
2022/05/17 06:21:16;;;;;;;17.00;6.20;;;;;;;;;;5035701;28;20183;-66
2022/05/17 06:23:42;;;;;;;12.55;5.97;;;;;;;;;;5023139;28;20270;-66
2022/05/17 06:26:08;;;;;;;14.00;5.95;;;;;;;;;;5031102;28;20259;-66
2022/05/17 06:28:33;;;;;;;8.75;6.03;;;;;;;;;;5034731;28;20178;-66
2022/05/17 06:30:59;;;;;;;10.52;5.50;;;;;;;;;;5031370;28;20285;-66
2022/05/17 06:33:25;;;;;;;10.40;5.72;;;;;;;;;;5031436;28;20207;-66
2022/05/17 06:35:52;;;;;;;13.77;5.38;;;;;;;;;;5041174;28;20853;-66
2022/05/17 06:38:17;;;;;;;11.63;5.13;;;;;;;;;;5035145;28;20197;-66
2022/05/17 06:40:43;;;;;;;11.18;5.38;;;;;;;;;;5031845;28;20169;-66
2022/05/17 06:43:08;;;;;;;11.25;5.43;;;;;;;;;;5039127;28;20634;-65
2022/05/17 06:45:34;;;;;;;10.32;5.75;;;;;;;;;;5045386;28;20365;-66
2022/05/17 06:48:00;;;;;;;8.82;4.68;;;;;;;;;;5036590;28;20485;-66
2022/05/17 06:50:27;;;;;;;12.35;5.43;;;;;;;;;;5032648;28;20194;-66
2022/05/17 06:52:52;;;;;;;8.02;4.78;;;;;;;;;;5040164;28;20604;-66
2022/05/17 06:55:18;;;;;;;12.80;4.93;;;;;;;;;;5034624;28;20175;-66
2022/05/17 06:57:43;;;;;;;10.20;5.32;;;;;;;;;;5026443;28;20224;-66
2022/05/17 07:00:12;;;;;;;11.65;5.20;;;;;;;;;;5030616;28;20630;-66
2022/05/17 07:02:38;;;;;;;10.57;4.95;;;;;;;;;;5031815;28;20186;-67
2022/05/17 07:05:04;;;;;;;12.07;5.32;;;;;;;;;;5033309;28;20270;-67
2022/05/17 07:07:29;;;;;;;9.20;4.95;;;;;;;;;;5040896;28;20651;-67
2022/05/17 07:15:23;;;;;;;9.88;5.00;;;;;;;;;;5034695;28;20199;-67
2022/05/17 07:17:48;;;;;;;9.27;5.32;;;;;;;;;;5030346;28;20183;-66
2022/05/17 07:20:15;;;;;;;10.38;6.00;;;;;;;;;;5034955;28;20176;-66
2022/05/17 07:22:40;;;;;;;17.02;5.43;;;;;;;;;;5031597;28;20269;-66
2022/05/17 07:25:06;;;;;;;12.57;5.63;;;;;;;;;;5036465;28;20689;-67
2022/05/17 07:27:32;;;;;;;10.48;5.63;;;;;;;;;;5036852;28;20181;-67
2022/05/17 07:29:57;;;;;;;10.70;5.85;;;;;;;;;;5043038;28;20788;-67
2022/05/17 07:32:23;;;;;;;12.68;5.32;;;;;;;;;;5040560;28;20213;-67
2022/05/17 07:34:48;;;;;;;15.02;5.15;;;;;;;;;;5042866;28;20211;-67
2022/05/17 07:37:14;;;;;;;9.85;4.65;;;;;;;;;;5034476;28;20181;-66
2022/05/17 07:39:40;;;;;;;12.32;5.70;;;;;;;;;;5039677;28;20177;-67
2022/05/17 07:42:06;;;;;;;12.50;5.50;;;;;;;;;;5041310;28;20261;-66
2022/05/17 07:44:33;;;;;;;12.23;5.25;;;;;;;;;;5046336;28;20265;-66
2022/05/17 07:46:58;;;;;;;10.95;5.10;;;;;;;;;;5030713;28;20416;-67
2022/05/17 07:49:23;;;;;;;14.00;5.28;;;;;;;;;;5032995;28;20186;-66
2022/05/17 07:51:49;;;;;;;12.02;4.20;;;;;;;;;;5039019;28;20634;-67
2022/05/17 07:54:14;;;;;;;11.43;4.90;;;;;;;;;;5047382;28;20605;-67
2022/05/17 07:56:40;;;;;;;9.38;4.95;;;;;;;;;;5045332;28;20201;-67
2022/05/17 07:59:05;;;;;;;13.13;5.07;;;;;;;;;;5040176;28;20178;-67
2022/05/17 08:01:30;;;;;;;11.00;5.18;;;;;;;;;;5042425;28;20268;-67
2022/05/17 08:03:56;;;;;;;9.32;5.28;;;;;;;;;;5035538;28;20174;-66
2022/05/17 08:06:21;;;;;;;13.10;5.05;;;;;;;;;;5044145;28;20170;-67
2022/05/17 08:08:46;;;;;;;14.73;4.55;;;;;;;;;;5036272;28;20501;-67
2022/05/17 08:11:12;;;;;;;9.70;4.88;;;;;;;;;;5036405;28;20210;-67
2022/05/17 08:13:39;;;;;;;11.77;4.75;;;;;;;;;;5030498;28;20295;-66
2022/05/17 08:16:04;;;;;;;13.60;4.93;;;;;;;;;;5042753;28;20181;-67
2022/05/17 08:18:30;;;;;;;16.70;6.60;;;;;;;;;;5032896;28;20579;-67
2022/05/17 08:20:56;;;;;;;10.05;5.25;;;;;;;;;;5039210;28;20602;-67
2022/05/17 08:23:21;;;;;;;13.02;5.57;;;;;;;;;;5042219;28;20177;-67
2022/05/17 08:28:31;;;;;;;11.82;5.80;;;;;;;;;;5031928;28;20193;-67
2022/05/17 08:30:56;;;;;;;16.35;5.13;;;;;;;;;;5036922;28;20201;-67
2022/05/17 08:33:23;;;;;;;11.45;5.50;;;;;;;;;;5036315;28;20181;-67
2022/05/17 08:35:55;;;;;;;9.75;5.22;;;;;;;;;;5038019;28;20205;-67
2022/05/17 08:38:31;;;;;;;14.32;5.20;;;;;;;;;;5037297;28;20193;-67
2022/05/17 08:41:26;;;;;;;10.35;5.03;;;;;;;;;;5032624;28;20186;-67
2022/05/17 08:44:15;;;;;;;12.70;5.45;;;;;;;;;;5032952;28;20178;-67
2022/05/17 08:47:12;;;;;;;13.57;5.25;;;;;;;;;;5031188;28;20190;-67
2022/05/17 08:50:01;;;;;;;9.75;4.90;;;;;;;;;;5029295;28;20182;-67
2022/05/17 08:52:29;;;;;;;10.20;5.45;;;;;;;;;;5031661;28;20551;-67
2022/05/17 08:55:23;;;;;;;10.65;4.93;;;;;;;;;;5044761;28;20277;-66
2022/05/17 08:57:53;;;;;;;10.23;4.97;;;;;;;;;;5038839;28;20182;-66
2022/05/17 09:00:23;;;;;;;11.82;4.72;;;;;;;;;;5049317;28;20196;-69
2022/05/17 09:02:56;;;;;;;8.13;4.60;;;;;;;;;;5034416;28;20649;-66
2022/05/17 09:05:36;;;;;;;9.25;4.28;;;;;;;;;;5043472;28;20184;-66
2022/05/17 09:08:19;;;;;;;10.32;4.28;;;;;;;;;;5047858;28;20201;-67
2022/05/17 09:11:07;;;;;;;15.27;5.28;;;;;;;;;;5040471;28;20227;-66
2022/05/17 09:13:52;;;;;;;14.55;4.32;;;;;;;;;;5036725;28;20209;-67
2022/05/17 09:16:21;;;;;;;9.68;3.70;;;;;;;;;;5043320;28;20196;-67
2022/05/17 09:18:48;;;;;;;14.07;4.03;;;;;;;;;;5042448;28;20696;-67
2022/05/17 09:21:35;;;;;;;11.15;4.30;;;;;;;;;;5036552;28;20174;-67
2022/05/17 09:24:07;;;;;;;9.82;4.28;;;;;;;;;;5026037;28;20653;-65
2022/05/17 09:26:33;;;;;;;12.55;4.45;;;;;;;;;;5047170;28;20173;-66
2022/05/17 09:29:27;;;;;;;9.43;4.47;;;;;;;;;;5042251;28;20181;-66
2022/05/17 09:32:03;;;;;;;9.93;3.88;;;;;;;;;;5035447;28;20214;-67
2022/05/17 09:34:41;;;;;;;10.38;4.13;;;;;;;;;;5043439;28;20700;-66
2022/05/17 09:37:16;;;;;;;13.27;4.35;;;;;;;;;;5044900;28;20211;-65
2022/05/17 09:39:48;;;;;;;13.65;4.50;;;;;;;;;;5038471;28;20561;-65
2022/05/17 09:42:28;;;;;;;11.20;4.47;;;;;;;;;;5040150;28;20177;-65
2022/05/17 09:44:56;;;;;;;16.10;4.80;;;;;;;;;;5034312;28;20174;-65
2022/05/17 09:47:30;;;;;;;11.45;4.50;;;;;;;;;;5037909;28;20375;-65
2022/05/17 09:52:52;;;;;;;8.05;3.70;;;;;;;;;;5034913;28;20256;-65
2022/05/17 09:55:22;;;;;;;12.48;4.55;;;;;;;;;;5047027;28;20563;-66
2022/05/17 09:57:56;;;;;;;11.95;4.40;;;;;;;;;;5033155;28;20181;-65
2022/05/17 10:00:34;;;;;;;9.65;4.38;;;;;;;;;;5034449;28;20193;-65
2022/05/17 10:03:04;;;;;;;11.38;4.75;;;;;;;;;;5029481;28;20183;-65
2022/05/17 10:05:40;;;;;;;13.35;5.35;;;;;;;;;;5033383;28;20186;-65
2022/05/17 10:08:12;;;;;;;13.60;5.35;;;;;;;;;;5033484;28;20185;-65
2022/05/17 10:10:42;;;;;;;10.73;5.35;;;;;;;;;;5040315;28;20378;-65
2022/05/17 10:13:26;;;;;;;9.25;4.60;;;;;;;;;;5041241;28;20624;-65
2022/05/17 10:15:56;;;;;;;10.65;5.07;;;;;;;;;;5038742;28;20200;-65
2022/05/17 10:18:44;;;;;;;12.00;4.78;;;;;;;;;;5033292;28;20638;-65
2022/05/17 10:21:17;;;;;;;13.18;4.57;;;;;;;;;;5034723;28;20182;-65
2022/05/17 10:24:00;;;;;;;9.50;4.60;;;;;;;;;;5041261;28;20185;-65
2022/05/17 10:26:33;;;;;;;10.30;4.57;;;;;;;;;;5039194;28;20189;-65
2022/05/17 10:29:13;;;;;;;15.45;4.47;;;;;;;;;;5027230;28;20719;-65
2022/05/17 10:32:05;;;;;;;8.40;3.85;;;;;;;;;;5036549;28;20292;-64
2022/05/17 10:34:55;;;;;;;10.10;4.28;;;;;;;;;;5040962;28;20264;-65
2022/05/17 10:37:32;;;;;;;12.30;3.85;;;;;;;;;;5034755;28;20186;-65
2022/05/17 10:40:09;;;;;;;15.50;5.05;;;;;;;;;;5027180;28;20178;-65
2022/05/17 10:42:37;;;;;;;11.02;3.80;;;;;;;;;;5038582;28;20685;-65
2022/05/17 10:45:05;;;;;;;9.45;4.18;;;;;;;;;;5038715;28;20182;-66
2022/05/17 10:47:50;;;;;;;6.93;3.63;;;;;;;;;;5032793;28;20428;-65
2022/05/17 10:50:21;;;;;;;8.57;3.22;;;;;;;;;;5044717;28;20185;-66
2022/05/17 10:53:13;;;;;;;11.05;3.00;;;;;;;;;;5031099;28;20680;-66
2022/05/17 10:56:09;;;;;;;9.30;3.33;;;;;;;;;;5041345;28;20190;-66
2022/05/17 10:58:53;;;;;;;11.13;4.15;;;;;;;;;;5039604;28;20174;-65
2022/05/17 11:01:41;;;;;;;9.88;4.00;;;;;;;;;;5036653;28;20230;-65
2022/05/17 11:04:15;;;;;;;8.65;3.38;;;;;;;;;;5028173;28;20182;-65
2022/05/17 11:07:20;;;;;;;10.38;3.92;;;;;;;;;;5033549;28;20192;-65
2022/05/17 11:10:03;;;;;;;8.75;3.92;;;;;;;;;;5038279;28;20229;-66
2022/05/17 11:12:38;;;;;;;12.77;4.13;;;;;;;;;;5040868;28;20200;-65
2022/05/17 11:15:18;;;;;;;11.68;4.90;;;;;;;;;;5038054;28;20177;-65
2022/05/17 11:17:55;;;;;;;12.00;4.78;;;;;;;;;;5047733;28;20600;-66
2022/05/17 11:20:36;;;;;;;10.23;4.22;;;;;;;;;;5039330;28;20177;-65
2022/05/17 11:23:12;;;;;;;13.95;4.40;;;;;;;;;;5042729;28;20606;-65
2022/05/17 11:26:08;;;;;;;14.00;4.93;;;;;;;;;;5042789;28;20648;-65
2022/05/17 11:29:18;;;;;;;12.55;5.30;;;;;;;;;;5045678;28;20185;-65
2022/05/17 11:31:58;;;;;;;11.65;4.70;;;;;;;;;;5036687;28;20217;-65
2022/05/17 11:34:30;;;;;;;14.23;5.00;;;;;;;;;;5038024;28;20557;-65
2022/05/17 11:37:02;;;;;;;12.45;5.10;;;;;;;;;;5036679;28;20604;-66
2022/05/17 11:39:30;;;;;;;10.40;4.38;;;;;;;;;;5032392;28;20182;-66
2022/05/17 11:42:25;;;;;;;9.25;4.47;;;;;;;;;;5030848;28;20225;-66
2022/05/17 11:44:51;;;;;;;11.02;4.60;;;;;;;;;;5032566;28;20265;-66
2022/05/17 11:47:33;;;;;;;12.07;4.68;;;;;;;;;;5034115;28;20269;-66
2022/05/17 11:50:18;;;;;;;9.27;4.70;;;;;;;;;;5048815;28;20189;-66
2022/05/17 11:52:46;;;;;;;17.08;5.20;;;;;;;;;;5033835;28;20202;-66
2022/05/17 11:55:23;;;;;;;17.20;6.95;;;;;;;;;;5042428;28;20247;-66
2022/05/17 11:57:48;;;;;;;12.15;5.13;;;;;;;;;;5048179;28;20261;-66
2022/05/17 12:00:43;;;;;;;11.57;5.32;;;;;;;;;;5028742;28;20178;-66
2022/05/17 12:03:20;;;;;;;10.80;4.97;;;;;;;;;;5041553;28;20261;-66
2022/05/17 12:05:47;;;;;;;14.18;5.28;;;;;;;;;;5037522;28;20204;-66
2022/05/17 12:08:37;;;;;;;12.35;5.03;;;;;;;;;;5037307;28;20268;-66
2022/05/17 12:11:11;;;;;;;15.07;5.75;;;;;;;;;;5038435;28;20234;-66
2022/05/17 12:14:11;;;;;;;11.55;5.40;;;;;;;;;;5030046;28;20178;-66
2022/05/17 12:16:43;;;;;;;11.93;5.00;;;;;;;;;;5030179;28;20305;-66
2022/05/17 12:19:16;;;;;;;13.18;5.75;;;;;;;;;;5050148;28;20204;-66
2022/05/17 12:22:10;;;;;;;11.60;5.10;;;;;;;;;;5048743;28;20232;-66
2022/05/17 12:24:56;;;;;;;10.63;5.05;;;;;;;;;;5045757;28;20174;-66
2022/05/17 12:27:30;;;;;;;11.75;5.90;;;;;;;;;;5041347;28;20690;-66
2022/05/17 12:33:15;;;;;;;13.85;5.20;;;;;;;;;;5044004;28;20700;-66
2022/05/17 12:35:41;;;;;;;12.15;5.70;;;;;;;;;;5041467;28;20283;-66
2022/05/17 12:43:02;;;;;;;12.90;5.35;;;;;;;;;;5030679;28;20178;-66
2022/05/17 12:43:37;;;;;;;12.07;5.65;;;;;;;;;;5041332;28;20193;-66
2022/05/17 12:46:14;;;;;;;10.65;5.03;;;;;;;;;;5038691;28;20645;-66
2022/05/17 12:48:40;;;;;;;12.63;5.18;;;;;;;;;;5038159;28;20181;-67
2022/05/17 12:51:08;;;;;;;9.68;5.13;;;;;;;;;;5048254;28;20202;-66
2022/05/17 12:53:44;;;;;;;8.18;4.07;;;;;;;;;;5032529;28;21458;-66
2022/05/17 12:56:18;;;;;;;8.65;3.75;;;;;;;;;;5036832;28;20169;-66
2022/05/17 12:58:55;;;;;;;6.88;3.72;;;;;;;;;;5041236;28;20212;-67
2022/05/17 13:01:24;;;;;;;10.10;4.70;;;;;;;;;;5037646;28;20183;-67
2022/05/17 13:03:56;;;;;;;5.63;3.88;;;;;;;;;;5038186;28;20201;-69
2022/05/17 13:06:31;;;;;;;8.30;4.28;;;;;;;;;;5039196;28;20178;-66
2022/05/17 13:08:57;;;;;;;6.10;3.90;;;;;;;;;;5035670;28;20242;-67
2022/05/17 13:11:25;;;;;;;5.75;3.08;;;;;;;;;;5038681;28;20308;-70
2022/05/17 13:14:06;;;;;;;6.95;3.58;;;;;;;;;;5036030;28;20593;-66
2022/05/17 13:16:36;;;;;;;7.90;4.32;;;;;;;;;;5036575;28;20275;-67
2022/05/17 13:19:07;;;;;;;7.68;4.10;;;;;;;;;;5038090;28;20549;-66
2022/05/17 13:21:48;;;;;;;9.25;4.15;;;;;;;;;;5039487;28;20166;-67
2022/05/17 13:24:35;;;;;;;8.07;3.70;;;;;;;;;;5038370;28;20185;-67
2022/05/17 13:27:25;;;;;;;6.57;3.38;;;;;;;;;;5037006;28;20185;-68
2022/05/17 13:29:54;;;;;;;5.30;3.17;;;;;;;;;;5036429;28;20260;-67
2022/05/17 13:32:22;;;;;;;7.13;3.70;;;;;;;;;;5036592;28;20648;-67
2022/05/17 13:35:14;;;;;;;5.13;3.63;;;;;;;;;;5032564;28;20228;-67
2022/05/17 13:37:53;;;;;;;7.75;3.83;;;;;;;;;;5032839;28;20181;-67
2022/05/17 13:40:40;;;;;;;10.30;4.22;;;;;;;;;;5028927;28;20296;-67
2022/05/17 13:43:33;;;;;;;9.23;4.43;;;;;;;;;;5032367;28;20240;-67
2022/05/17 13:46:20;;;;;;;9.32;4.20;;;;;;;;;;5032020;28;20186;-67
2022/05/17 13:48:48;;;;;;;7.30;3.60;;;;;;;;;;5030418;28;20174;-68
2022/05/17 13:51:30;;;;;;;5.95;3.55;;;;;;;;;;5029877;28;20198;-68
2022/05/17 13:54:23;;;;;;;7.20;4.25;;;;;;;;;;5032350;28;20281;-68
2022/05/17 13:56:53;;;;;;;8.32;3.63;;;;;;;;;;5034865;28;21401;-68
2022/05/17 13:59:19;;;;;;;6.78;2.85;;;;;;;;;;5032650;28;20219;-67
2022/05/17 14:01:54;;;;;;;8.10;3.88;;;;;;;;;;5028395;28;20547;-67
2022/05/17 14:04:25;;;;;;;8.25;3.53;;;;;;;;;;5032106;28;20181;-67
2022/05/17 14:07:03;;;;;;;5.15;3.05;;;;;;;;;;5029907;28;20533;-68
2022/05/17 14:12:18;;;;;;;7.22;3.67;;;;;;;;;;5032981;28;20221;-68
2022/05/17 14:14:48;;;;;;;4.45;2.67;;;;;;;;;;5028255;28;20182;-67
2022/05/17 14:17:18;;;;;;;5.28;2.80;;;;;;;;;;5032931;28;20181;-67
2022/05/17 14:19:50;;;;;;;5.90;2.75;;;;;;;;;;5034814;28;20201;-68
2022/05/17 14:22:17;;;;;;;7.75;2.90;;;;;;;;;;5032631;28;20220;-68
2022/05/17 14:24:43;;;;;;;4.25;2.72;;;;;;;;;;5039104;28;20196;-68
2022/05/17 14:27:08;;;;;;;6.47;3.03;;;;;;;;;;5033040;28;20276;-67
2022/05/17 14:29:34;;;;;;;6.07;3.30;;;;;;;;;;5033114;28;20714;-68
2022/05/17 14:32:02;;;;;;;6.32;3.30;;;;;;;;;;5029899;28;20205;-68
2022/05/17 14:34:27;;;;;;;5.40;2.95;;;;;;;;;;5039858;28;20387;-68
2022/05/17 14:36:53;;;;;;;4.38;2.92;;;;;;;;;;5033606;28;20178;-69
2022/05/17 14:39:20;;;;;;;7.28;3.42;;;;;;;;;;5031975;28;20235;-68
2022/05/17 14:41:48;;;;;;;5.47;3.10;;;;;;;;;;5031446;28;20540;-67
2022/05/17 14:44:15;;;;;;;5.95;2.88;;;;;;;;;;5037599;28;20256;-67
2022/05/17 14:46:40;;;;;;;4.78;2.83;;;;;;;;;;5037913;28;20605;-69
2022/05/17 14:49:13;;;;;;;7.72;2.90;;;;;;;;;;5034573;28;20646;-69
2022/05/17 14:51:39;;;;;;;6.00;2.90;;;;;;;;;;5035279;28;20237;-66
2022/05/17 14:54:06;;;;;;;3.15;2.78;;;;;;;;;;5037410;28;20205;-66
2022/05/17 14:56:32;;;;;;;7.63;3.90;;;;;;;;;;5040144;28;20517;-66
2022/05/17 14:58:57;;;;;;;5.72;2.95;;;;;;;;;;5037804;28;20181;-67
2022/05/17 15:01:23;;;;;;;4.47;3.28;;;;;;;;;;5036050;28;20737;-66
2022/05/17 15:03:56;;;;;;;5.78;3.00;;;;;;;;;;5036311;28;20256;-67
2022/05/17 15:06:23;;;;;;;4.28;2.72;;;;;;;;;;5040453;28;20190;-66
2022/05/17 15:08:49;;;;;;;7.13;2.60;;;;;;;;;;5031205;28;20277;-66
2022/05/17 15:11:15;;;;;;;5.85;3.00;;;;;;;;;;5030307;28;20364;-66
2022/05/17 15:13:41;;;;;;;5.07;2.80;;;;;;;;;;5038476;28;20208;-67
2022/05/17 15:16:11;;;;;;;8.80;2.70;;;;;;;;;;5040698;28;20201;-67